首页
METAR-TAF:

METAR-TAF

机场 :

羅蘭加洛斯機場

圣但尼, 留尼汪岛

纬度: 20-53S, 经度: 055-31E, 海拔: 21米

当前天气观测

该预报发布于17分钟前的14:00 UTC
风速13节,风向东转东南
温度 22°C
湿度 65%
气压 1022 hPa
能见度10公里或以上
1500米以下无云,无积雨云

METAR: FMEE 201400Z AUTO 11013KT CAVOK 22/15 Q1022 TEMPO 12015G25KT

时间: 18:17 (14:17 UTC)

预报

该预报发布于3小时和17分钟前的11:00 UTC
预报有效从20日的 12点(UTC)到 21日的 18点(UTC)
风速15节,风向东转东南
能见度10公里或以上
少量云层高于2000英尺
散云层高于5000英尺
短暂存在
从 20日的 12点(UTC)到 20日的 15点(UTC)
风速15节,风向东转东南,有时为25节阵风
短暂存在
从 21日的 00点(UTC)到 21日的 12点(UTC)
风速20节,风向东转东南,有时为30节阵风

TAF: FMEE 201100Z 2012/2118 11015KT 9999 FEW020 SCT050 TEMPO 2012/2015 12015G25KT TEMPO 2100/2112 12020G30KT

超过4000个机场的气象观测和天气预报(METAR&TAF报告)。

可查询的气象台以黄色和红色小点在地图上表示。

将鼠标移到小点上方,可查看气象台名称。

然后点击查看天气观测和预报。

如需切换地图:点击带黑十字的绿色按钮放大地图;点击带横线的绿色按钮缩小地图;或者点击绿色箭头查看邻近地区的地图。


METAR-TAF: